createdAt,value
2019-03-25T00:01:28.041Z,101181.30
2019-03-25T00:04:33.009Z,101174.44
2019-03-25T00:07:37.669Z,101171.80
2019-03-25T00:10:42.095Z,101174.16
2019-03-25T00:13:46.664Z,101167.80
2019-03-25T00:16:51.165Z,101163.92
2019-03-25T00:19:55.752Z,101168.84
2019-03-25T00:23:00.259Z,101161.49
2019-03-25T00:26:04.740Z,101170.74
2019-03-25T00:29:09.241Z,101157.23
2019-03-25T00:32:14.082Z,101167.23
2019-03-25T00:35:18.532Z,101172.87
2019-03-25T00:38:22.996Z,101161.47
2019-03-25T00:41:27.767Z,101150.42
2019-03-25T00:44:32.254Z,101153.55
2019-03-25T00:47:36.722Z,101155.48
2019-03-25T00:50:41.490Z,101159.98
2019-03-25T00:53:46.811Z,101158.73
2019-03-25T00:56:51.527Z,101159.71
2019-03-25T00:59:56.103Z,101154.53
2019-03-25T01:03:00.677Z,101155.02
2019-03-25T01:06:05.200Z,101154.69
2019-03-25T01:09:09.712Z,101159.20
2019-03-25T01:12:14.251Z,101151.73
2019-03-25T01:15:18.751Z,101145.98
2019-03-25T01:18:23.408Z,101155.56
2019-03-25T01:21:27.905Z,101155.56
2019-03-25T01:24:32.574Z,101154.73
2019-03-25T01:27:37.402Z,101148.27
2019-03-25T01:30:42.316Z,101162.75
2019-03-25T01:33:46.866Z,101157.15
2019-03-25T01:36:51.583Z,101157.19
2019-03-25T01:39:55.995Z,101159.37
2019-03-25T01:43:02.152Z,101160.69
2019-03-25T01:46:06.766Z,101163.75
2019-03-25T01:49:11.550Z,101161.23
2019-03-25T01:52:16.417Z,101158.73
2019-03-25T01:55:21.651Z,101157.02
2019-03-25T01:58:25.974Z,101147.47
2019-03-25T02:01:30.768Z,101153.70
2019-03-25T02:04:35.488Z,101144.09
2019-03-25T02:07:40.222Z,101137.52
2019-03-25T02:10:44.707Z,101146.69
2019-03-25T02:13:49.514Z,101144.97
2019-03-25T02:16:54.079Z,101134.52
2019-03-25T02:20:01.205Z,101140.66
2019-03-25T02:23:05.950Z,101142.02
2019-03-25T02:26:10.528Z,101142.50
2019-03-25T02:29:16.127Z,101143.39
2019-03-25T02:32:20.631Z,101136.84
2019-03-25T02:35:25.147Z,101138.16
2019-03-25T02:38:29.908Z,101132.50
2019-03-25T02:41:34.814Z,101135.97
2019-03-25T02:44:39.783Z,101135.53
2019-03-25T02:47:44.360Z,101139.89
2019-03-25T02:50:48.804Z,101134.21
2019-03-25T02:53:54.036Z,101127.66
2019-03-25T02:56:58.931Z,101129.82
2019-03-25T03:00:03.648Z,101133.31
2019-03-25T03:03:08.945Z,101125.89
2019-03-25T03:06:13.461Z,101130.73
2019-03-25T03:09:17.858Z,101124.17
2019-03-25T03:12:22.298Z,101132.02
2019-03-25T03:15:27.487Z,101128.13
2019-03-25T03:18:31.991Z,101129.39
2019-03-25T03:21:36.416Z,101119.78
2019-03-25T03:24:41.678Z,101121.06
2019-03-25T03:27:46.518Z,101117.11
2019-03-25T03:30:50.880Z,101114.56
2019-03-25T03:33:55.594Z,101117.23
2019-03-25T03:37:00.324Z,101122.45
2019-03-25T03:40:05.217Z,101119.00
2019-03-25T03:43:09.784Z,101114.66
2019-03-25T03:46:14.357Z,101115.96
2019-03-25T03:49:19.023Z,101111.16
2019-03-25T03:52:24.223Z,101112.89
2019-03-25T03:55:29.830Z,101114.19
2019-03-25T03:58:35.248Z,101113.76
2019-03-25T04:01:40.053Z,101117.22
2019-03-25T04:04:44.653Z,101108.08
2019-03-25T04:07:49.413Z,101104.62
2019-03-25T04:10:54.200Z,101095.50
2019-03-25T04:13:58.706Z,101099.84
2019-03-25T04:17:03.596Z,101096.80
2019-03-25T04:20:08.573Z,101095.50
2019-03-25T04:23:13.365Z,101096.81
2019-03-25T04:26:28.589Z,101095.94
2019-03-25T04:29:24.363Z,101097.70
2019-03-25T04:32:29.092Z,101102.48
2019-03-25T04:35:33.858Z,101101.60
2019-03-25T04:38:38.217Z,101105.95
2019-03-25T04:41:42.643Z,101108.55
2019-03-25T04:44:47.424Z,101105.95
2019-03-25T04:47:52.233Z,101110.73
2019-03-25T04:50:57.020Z,101100.72
2019-03-25T04:54:01.498Z,101102.90
2019-03-25T04:57:06.097Z,101099.41
2019-03-25T05:00:11.607Z,101094.63
2019-03-25T05:03:16.546Z,101091.59
2019-03-25T05:06:21.507Z,101092.44
2019-03-25T05:09:27.364Z,101089.39
2019-03-25T05:12:32.146Z,101084.19
2019-03-25T05:15:36.636Z,101087.67
2019-03-25T05:18:41.333Z,101086.80
2019-03-25T05:21:45.757Z,101083.76
2019-03-25T05:24:50.264Z,101085.08
2019-03-25T05:27:56.498Z,101082.89
2019-03-25T05:31:01.831Z,101079.41
2019-03-25T05:34:06.357Z,101082.47
2019-03-25T05:37:11.286Z,101083.31
2019-03-25T05:40:15.869Z,101081.58
2019-03-25T05:43:21.229Z,101082.91
2019-03-25T05:46:25.891Z,101077.22
2019-03-25T05:49:30.573Z,101085.06
2019-03-25T05:52:34.998Z,101084.63
2019-03-25T05:55:40.890Z,101083.76
2019-03-25T05:58:45.563Z,101078.11
2019-03-25T06:01:50.107Z,101082.03
2019-03-25T06:04:54.622Z,101074.59
2019-03-25T06:07:59.185Z,101072.43
2019-03-25T06:11:04.003Z,101076.33
2019-03-25T06:14:08.428Z,101071.10
2019-03-25T06:17:12.946Z,101068.91
2019-03-25T06:20:17.575Z,101054.92
2019-03-25T06:23:21.997Z,101047.48
2019-03-25T06:26:26.881Z,101043.06
2019-03-25T06:29:32.146Z,101033.42
2019-03-25T06:32:38.448Z,101039.05
2019-03-25T06:35:42.944Z,101054.22
2019-03-25T06:38:47.431Z,101059.83
2019-03-25T06:41:52.293Z,101069.67
2019-03-25T06:44:57.139Z,101059.55
2019-03-25T06:48:01.632Z,101049.38
2019-03-25T06:51:06.147Z,101054.31
2019-03-25T06:54:10.678Z,101047.77
2019-03-25T06:57:25.243Z,101051.21
2019-03-25T07:00:21.945Z,101042.42
2019-03-25T07:03:26.750Z,101050.18
2019-03-25T07:06:31.297Z,101043.10
2019-03-25T07:09:36.095Z,101048.88
2019-03-25T07:12:40.693Z,101046.20
2019-03-25T07:15:45.460Z,101045.77
2019-03-25T07:18:51.323Z,101048.05
2019-03-25T07:21:55.767Z,101047.66
2019-03-25T07:25:00.987Z,101046.20
2019-03-25T07:28:05.509Z,101048.34
2019-03-25T07:31:10.236Z,101051.72
2019-03-25T07:34:15.404Z,101048.06
2019-03-25T07:37:20.227Z,101048.00
2019-03-25T07:40:25.317Z,101061.17
2019-03-25T07:43:29.731Z,101066.23
2019-03-25T07:46:34.221Z,101049.95
2019-03-25T07:49:39.067Z,101039.14
2019-03-25T07:52:43.606Z,101050.62
2019-03-25T07:55:48.029Z,101051.48
2019-03-25T07:58:52.499Z,101050.66
2019-03-25T08:01:57.510Z,101054.55
2019-03-25T08:05:02.320Z,101055.06
2019-03-25T08:08:07.476Z,101060.98
2019-03-25T08:11:12.654Z,101067.12
2019-03-25T08:14:17.514Z,101061.75
2019-03-25T08:17:22.013Z,101062.28
2019-03-25T08:20:26.519Z,101053.36
2019-03-25T08:23:31.349Z,101060.04
2019-03-25T08:26:35.781Z,101058.03
2019-03-25T08:29:40.231Z,101071.80
2019-03-25T08:32:45.381Z,101073.98
2019-03-25T08:35:50.308Z,101076.50
2019-03-25T08:38:55.182Z,101063.77
2019-03-25T08:42:00.740Z,101069.25
2019-03-25T08:45:05.635Z,101071.92
2019-03-25T08:48:10.192Z,101072.77
2019-03-25T08:51:14.643Z,101090.13
2019-03-25T08:54:19.903Z,101082.78
2019-03-25T08:57:24.729Z,101086.41
2019-03-25T09:00:29.574Z,101082.48
2019-03-25T09:03:34.106Z,101088.59
2019-03-25T09:06:39.437Z,101087.18
2019-03-25T09:09:44.284Z,101084.12
2019-03-25T09:12:49.106Z,101084.14
2019-03-25T09:15:54.159Z,101081.73
2019-03-25T09:18:58.545Z,101090.27
2019-03-25T09:22:03.055Z,101095.41
2019-03-25T09:25:08.575Z,101095.39
2019-03-25T09:28:23.705Z,101103.22
2019-03-25T09:31:22.010Z,101093.42
2019-03-25T09:34:27.129Z,101092.69
2019-03-25T09:37:32.287Z,101090.08
2019-03-25T09:40:36.712Z,101089.38
2019-03-25T09:43:41.621Z,101092.34
2019-03-25T09:46:46.118Z,101082.61
2019-03-25T09:49:50.647Z,101082.06
2019-03-25T09:52:55.064Z,101082.34
2019-03-25T09:56:00.033Z,101077.43
2019-03-25T09:59:05.076Z,101068.86
2019-03-25T10:02:09.863Z,101074.36
2019-03-25T10:05:14.739Z,101082.66
2019-03-25T10:08:19.337Z,101079.55
2019-03-25T10:11:23.658Z,101084.56
2019-03-25T10:14:28.183Z,101080.34
2019-03-25T10:17:32.568Z,101074.58
2019-03-25T10:20:37.329Z,101086.52
2019-03-25T10:23:41.801Z,101085.55
2019-03-25T10:26:46.327Z,101085.69
2019-03-25T10:29:50.793Z,101075.00
2019-03-25T10:32:55.329Z,101077.56
2019-03-25T10:36:00.199Z,101069.08
2019-03-25T10:39:06.342Z,101061.28
2019-03-25T10:42:10.780Z,101060.52
2019-03-25T10:45:15.362Z,101062.34
2019-03-25T10:48:19.870Z,101044.39
2019-03-25T10:51:24.312Z,101072.25
2019-03-25T10:54:28.771Z,101066.85
2019-03-25T10:57:33.272Z,101061.02
2019-03-25T11:00:37.919Z,101047.70
2019-03-25T11:03:42.690Z,101039.16
2019-03-25T11:06:47.145Z,101029.75
2019-03-25T11:09:51.741Z,101031.36
2019-03-25T11:12:56.243Z,101027.46
2019-03-25T11:16:00.693Z,101024.27
2019-03-25T11:19:05.256Z,101031.14
2019-03-25T11:22:09.972Z,101031.63
2019-03-25T11:25:15.921Z,101029.30
2019-03-25T11:28:20.432Z,101025.53
2019-03-25T11:31:24.939Z,101013.05
2019-03-25T11:34:29.418Z,101012.56
2019-03-25T11:37:33.853Z,101021.11
2019-03-25T11:40:38.229Z,101010.92
2019-03-25T11:43:42.896Z,101031.14
2019-03-25T11:46:47.393Z,101039.19
2019-03-25T11:49:52.176Z,101040.25
2019-03-25T11:52:56.626Z,101041.70
2019-03-25T11:56:01.097Z,101050.03
2019-03-25T11:59:05.637Z,101045.78
2019-03-25T12:02:17.303Z,101048.43
2019-03-25T12:05:16.414Z,101047.09
2019-03-25T12:08:20.870Z,101040.95
2019-03-25T12:11:25.517Z,101026.60
2019-03-25T12:14:29.919Z,101033.04
2019-03-25T12:17:34.447Z,101030.40
2019-03-25T12:20:39.313Z,101014.56
2019-03-25T12:23:43.806Z,101007.14
2019-03-25T12:26:48.477Z,101001.33
2019-03-25T12:29:52.961Z,101001.77
2019-03-25T12:33:03.975Z,101004.62
2019-03-25T12:36:04.876Z,101008.83
2019-03-25T12:39:09.566Z,101001.40
2019-03-25T12:42:14.041Z,101001.50
2019-03-25T12:45:18.592Z,100986.91
2019-03-25T12:48:23.296Z,100987.69
2019-03-25T12:51:28.575Z,100985.85
2019-03-25T12:54:33.070Z,100983.37
2019-03-25T12:57:37.521Z,100985.49
2019-03-25T13:00:43.551Z,100986.43
2019-03-25T13:03:48.550Z,100984.53
2019-03-25T13:06:53.148Z,101025.79
2019-03-25T13:09:57.614Z,101065.16
2019-03-25T13:13:02.112Z,101095.88
2019-03-25T13:16:06.611Z,101106.38
2019-03-25T13:19:11.436Z,101124.94
2019-03-25T13:22:16.364Z,101117.91
2019-03-25T13:25:20.887Z,101108.77
2019-03-25T13:28:26.047Z,101105.06
2019-03-25T13:31:30.764Z,101085.77
2019-03-25T13:34:35.186Z,101077.91
2019-03-25T13:37:40.028Z,101088.19
2019-03-25T13:40:44.418Z,101086.61
2019-03-25T13:43:49.021Z,101081.41
2019-03-25T13:46:53.455Z,101085.33
2019-03-25T13:49:57.876Z,101076.72
2019-03-25T13:53:02.366Z,101085.19
2019-03-25T13:56:06.932Z,101090.09
2019-03-25T13:59:11.471Z,101109.48
2019-03-25T14:02:16.210Z,101091.59
2019-03-25T14:05:20.867Z,101094.80
2019-03-25T14:08:25.811Z,101098.92
2019-03-25T14:11:30.275Z,101095.46
2019-03-25T14:14:35.035Z,101093.45
2019-03-25T14:17:40.107Z,101094.40
2019-03-25T14:20:44.672Z,101099.38
2019-03-25T14:23:49.478Z,101104.28
2019-03-25T14:26:53.978Z,101092.52
2019-03-25T14:30:00.733Z,101085.39
2019-03-25T14:33:04.736Z,101083.57
2019-03-25T14:36:09.176Z,101080.73
2019-03-25T14:39:13.515Z,101067.80
2019-03-25T14:42:18.005Z,101068.42
2019-03-25T14:45:26.621Z,101056.95
2019-03-25T14:48:29.640Z,101047.02
2019-03-25T14:51:34.583Z,101045.78
2019-03-25T14:54:40.116Z,101056.36
2019-03-25T14:57:45.308Z,101059.41
2019-03-25T15:00:49.883Z,101069.71
2019-03-25T15:03:55.105Z,101080.23
2019-03-25T15:07:00.107Z,101067.44
2019-03-25T15:10:05.153Z,101074.70
2019-03-25T15:13:09.630Z,101080.32
2019-03-25T15:16:14.564Z,101076.89
2019-03-25T15:19:19.245Z,101087.84
2019-03-25T15:22:24.210Z,101094.83
2019-03-25T15:25:28.720Z,101102.41
2019-03-25T15:28:33.633Z,101094.89
2019-03-25T15:31:39.010Z,101105.07
2019-03-25T15:34:43.896Z,101117.23
2019-03-25T15:37:48.487Z,101105.67
2019-03-25T15:40:53.308Z,101120.64
2019-03-25T15:43:57.744Z,101122.54
2019-03-25T15:47:02.585Z,101133.03
2019-03-25T15:50:08.986Z,101135.37
2019-03-25T15:53:13.464Z,101125.52
2019-03-25T15:56:18.394Z,101125.64
2019-03-25T15:59:23.380Z,101119.51
2019-03-25T16:02:27.849Z,101117.23
2019-03-25T16:05:32.536Z,101130.18
2019-03-25T16:08:37.241Z,101124.16
2019-03-25T16:11:42.213Z,101128.91
2019-03-25T16:14:46.923Z,101130.31
2019-03-25T16:17:51.555Z,101127.66
2019-03-25T16:20:56.092Z,101138.11
2019-03-25T16:24:00.970Z,101130.13
2019-03-25T16:27:05.370Z,101134.34
2019-03-25T16:30:10.098Z,101137.02
2019-03-25T16:33:14.572Z,101132.05
2019-03-25T16:36:19.493Z,101135.89
2019-03-25T16:39:24.375Z,101134.03
2019-03-25T16:42:28.770Z,101116.94
2019-03-25T16:45:33.190Z,101123.72
2019-03-25T16:48:37.839Z,101132.70
2019-03-25T16:51:42.364Z,101127.63
2019-03-25T16:54:47.147Z,101137.39
2019-03-25T16:57:51.692Z,101135.65
2019-03-25T17:00:57.270Z,101142.39
2019-03-25T17:04:01.797Z,101152.03
2019-03-25T17:07:06.082Z,101159.87
2019-03-25T17:10:10.909Z,101165.58
2019-03-25T17:13:15.334Z,101175.48
2019-03-25T17:16:19.790Z,101174.74
2019-03-25T17:19:24.422Z,101180.89
2019-03-25T17:22:28.868Z,101177.25
2019-03-25T17:25:33.236Z,101186.42
2019-03-25T17:28:38.083Z,101185.19
2019-03-25T17:31:44.487Z,101188.51
2019-03-25T17:34:49.216Z,101198.86
2019-03-25T17:37:53.725Z,101196.59
2019-03-25T17:40:58.256Z,101205.45
2019-03-25T17:44:03.772Z,101204.56
2019-03-25T17:47:08.323Z,101202.55
2019-03-25T17:50:13.139Z,101205.70
2019-03-25T17:53:18.275Z,101205.70
2019-03-25T17:56:23.071Z,101207.66
2019-03-25T17:59:27.864Z,101215.65
2019-03-25T18:02:32.304Z,101226.16
2019-03-25T18:05:36.597Z,101238.41
2019-03-25T18:08:41.073Z,101249.05
2019-03-25T18:11:45.514Z,101261.02
2019-03-25T18:14:50.157Z,101264.27
2019-03-25T18:17:54.455Z,101283.70
2019-03-25T18:20:59.229Z,101286.13
2019-03-25T18:24:04.125Z,101282.31
2019-03-25T18:27:09.103Z,101288.44
2019-03-25T18:30:13.712Z,101281.16
2019-03-25T18:33:18.455Z,101290.38
2019-03-25T18:36:22.879Z,101289.09
2019-03-25T18:39:27.757Z,101293.94
2019-03-25T18:42:32.191Z,101306.30
2019-03-25T18:45:36.686Z,101314.20
2019-03-25T18:48:41.058Z,101325.14
2019-03-25T18:51:45.687Z,101334.34
2019-03-25T18:54:50.519Z,101348.30
2019-03-25T18:57:54.974Z,101344.35
2019-03-25T19:00:59.472Z,101346.48
2019-03-25T19:04:04.332Z,101350.92
2019-03-25T19:07:08.858Z,101355.27
2019-03-25T19:10:16.623Z,101360.55
2019-03-25T19:13:20.931Z,101365.33
2019-03-25T19:16:25.409Z,101367.05
2019-03-25T19:19:30.096Z,101372.78
2019-03-25T19:22:34.851Z,101384.98
2019-03-25T19:25:39.461Z,101381.97
2019-03-25T19:28:43.776Z,101381.52
2019-03-25T19:31:48.192Z,101388.51
2019-03-25T19:34:52.601Z,101392.86
2019-03-25T19:37:57.215Z,101399.75
2019-03-25T19:41:01.943Z,101405.88
2019-03-25T19:44:06.531Z,101410.24
2019-03-25T19:47:10.871Z,101399.76
2019-03-25T19:50:15.974Z,101413.23
2019-03-25T19:53:20.978Z,101414.09
2019-03-25T19:56:25.634Z,101413.67
2019-03-25T19:59:30.452Z,101410.61
2019-03-25T20:02:35.012Z,101417.59
2019-03-25T20:05:39.755Z,101414.58
2019-03-25T20:08:44.217Z,101417.63
2019-03-25T20:11:48.869Z,101427.22
2019-03-25T20:14:53.346Z,101429.42
2019-03-25T20:17:57.997Z,101434.29
2019-03-25T20:21:02.442Z,101446.97
2019-03-25T20:24:07.255Z,101455.70
2019-03-25T20:27:11.725Z,101459.22
2019-03-25T20:30:17.403Z,101477.55
2019-03-25T20:33:21.925Z,101477.97
2019-03-25T20:36:26.550Z,101479.30
2019-03-25T20:39:31.262Z,101483.22
2019-03-25T20:42:35.879Z,101479.73
2019-03-25T20:45:40.243Z,101484.52
2019-03-25T20:48:45.291Z,101498.05
2019-03-25T20:51:49.743Z,101495.41
2019-03-25T20:54:54.048Z,101494.52
2019-03-25T20:57:58.505Z,101501.92
2019-03-25T21:01:04.782Z,101506.31
2019-03-25T21:04:10.128Z,101505.41
2019-03-25T21:07:14.501Z,101499.33
2019-03-25T21:10:19.006Z,101503.67
2019-03-25T21:13:23.383Z,101504.10
2019-03-25T21:16:27.776Z,101504.52
2019-03-25T21:19:32.214Z,101514.84
2019-03-25T21:22:36.559Z,101512.68
2019-03-25T21:25:40.902Z,101521.44
2019-03-25T21:28:45.387Z,101531.51
2019-03-25T21:31:49.829Z,101538.56
2019-03-25T21:34:54.361Z,101543.87
2019-03-25T21:37:59.069Z,101544.30
2019-03-25T21:41:03.818Z,101542.98
2019-03-25T21:44:08.155Z,101549.06
2019-03-25T21:47:12.536Z,101545.13
2019-03-25T21:50:16.976Z,101543.34
2019-03-25T21:53:21.505Z,101548.09
2019-03-25T21:56:25.968Z,101546.30
2019-03-25T21:59:30.516Z,101551.98
2019-03-25T22:02:34.821Z,101565.48
2019-03-25T22:05:39.458Z,101563.22
2019-03-25T22:08:43.786Z,101562.73
2019-03-25T22:11:48.142Z,101570.22
2019-03-25T22:14:52.741Z,101575.05
2019-03-25T22:17:57.305Z,101577.34
2019-03-25T22:21:01.715Z,101588.75
2019-03-25T22:24:06.016Z,101603.10
2019-03-25T22:27:10.930Z,101596.20
2019-03-25T22:30:15.747Z,101593.55
2019-03-25T22:33:26.154Z,101596.17
2019-03-25T22:36:26.924Z,101601.83
2019-03-25T22:39:31.319Z,101604.00
2019-03-25T22:42:35.794Z,101603.99
2019-03-25T22:45:40.289Z,101601.83
2019-03-25T22:48:45.235Z,101609.20
2019-03-25T22:51:49.815Z,101609.17
2019-03-25T22:54:54.217Z,101611.69
2019-03-25T22:57:58.973Z,101609.84
2019-03-25T23:01:05.036Z,101612.34
2019-03-25T23:04:09.409Z,101607.91
2019-03-25T23:07:14.572Z,101616.05
2019-03-25T23:10:19.093Z,101619.07
2019-03-25T23:13:24.849Z,101620.27
2019-03-25T23:16:29.299Z,101627.59
2019-03-25T23:19:34.178Z,101626.70
2019-03-25T23:22:38.663Z,101628.38
2019-03-25T23:25:43.807Z,101637.08
2019-03-25T23:28:48.560Z,101639.27
2019-03-25T23:31:53.279Z,101646.19
2019-03-25T23:34:57.722Z,101647.44
2019-03-25T23:38:02.646Z,101642.69
2019-03-25T23:41:07.170Z,101652.83
2019-03-25T23:44:11.715Z,101656.80
2019-03-25T23:47:16.194Z,101659.28
2019-03-25T23:50:20.594Z,101664.36
2019-03-25T23:53:25.516Z,101666.95
2019-03-25T23:56:30.036Z,101669.14
2019-03-25T23:59:34.842Z,101676.76
